sensor_id;sensor_type;location;lat;lon;timestamp;pressure;altitude;pressure_sealevel;temperature;humidity
61136;BME280;47021;51.340;12.432;2023-02-21T00:00:09;100114.53;;;13.19;59.71
61136;BME280;47021;51.340;12.432;2023-02-21T00:02:42;100128.31;;;12.65;61.32
61136;BME280;47021;51.340;12.432;2023-02-21T00:05:07;100138.03;;;13.11;60.25
61136;BME280;47021;51.340;12.432;2023-02-21T00:07:49;100131.97;;;12.91;60.76
61136;BME280;47021;51.340;12.432;2023-02-21T00:13:05;100128.16;;;12.76;61.19
61136;BME280;47021;51.340;12.432;2023-02-21T00:15:30;100127.97;;;12.87;60.53
61136;BME280;47021;51.340;12.432;2023-02-21T00:17:57;100128.91;;;13.42;59.15
61136;BME280;47021;51.340;12.432;2023-02-21T00:20:23;100120.47;;;13.48;59.18
61136;BME280;47021;51.340;12.432;2023-02-21T00:22:50;100127.53;;;13.01;60.32
61136;BME280;47021;51.340;12.432;2023-02-21T00:25:16;100130.59;;;13.06;60.74
61136;BME280;47021;51.340;12.432;2023-02-21T00:27:42;100101.66;;;13.53;59.33
61136;BME280;47021;51.340;12.432;2023-02-21T00:30:07;100118.00;;;13.00;60.55
61136;BME280;47021;51.340;12.432;2023-02-21T00:32:33;100105.47;;;13.40;59.67
61136;BME280;47021;51.340;12.432;2023-02-21T00:34:59;100111.03;;;13.55;58.90
61136;BME280;47021;51.340;12.432;2023-02-21T00:37:24;100115.41;;;12.91;60.88
61136;BME280;47021;51.340;12.432;2023-02-21T00:39:50;100107.06;;;13.24;60.17
61136;BME280;47021;51.340;12.432;2023-02-21T00:42:16;100101.69;;;13.16;60.14
61136;BME280;47021;51.340;12.432;2023-02-21T00:44:42;100097.72;;;13.12;60.07
61136;BME280;47021;51.340;12.432;2023-02-21T00:47:15;100106.25;;;13.04;60.67
61136;BME280;47021;51.340;12.432;2023-02-21T00:49:40;100117.47;;;12.97;60.72
61136;BME280;47021;51.340;12.432;2023-02-21T00:54:49;100098.00;;;13.09;60.59
61136;BME280;47021;51.340;12.432;2023-02-21T00:57:16;100112.09;;;13.08;60.33
61136;BME280;47021;51.340;12.432;2023-02-21T00:59:47;100105.91;;;13.36;59.36
61136;BME280;47021;51.340;12.432;2023-02-21T01:03:32;100095.28;;;12.82;61.60
61136;BME280;47021;51.340;12.432;2023-02-21T01:06:07;100095.78;;;13.14;61.01
61136;BME280;47021;51.340;12.432;2023-02-21T01:08:33;100102.03;;;13.40;59.69
61136;BME280;47021;51.340;12.432;2023-02-21T01:11:00;100088.50;;;13.08;60.84
61136;BME280;47021;51.340;12.432;2023-02-21T01:13:33;100091.63;;;13.11;60.63
61136;BME280;47021;51.340;12.432;2023-02-21T01:16:14;100104.03;;;13.19;60.13
61136;BME280;47021;51.340;12.432;2023-02-21T01:18:51;100096.13;;;12.82;61.52
61136;BME280;47021;51.340;12.432;2023-02-21T01:21:25;100100.28;;;12.65;62.03
61136;BME280;47021;51.340;12.432;2023-02-21T01:23:50;100092.16;;;13.24;60.35
61136;BME280;47021;51.340;12.432;2023-02-21T01:26:16;100087.25;;;12.93;60.97
61136;BME280;47021;51.340;12.432;2023-02-21T01:28:47;100096.91;;;13.02;61.26
61136;BME280;47021;51.340;12.432;2023-02-21T01:31:29;100103.16;;;13.28;60.06
61136;BME280;47021;51.340;12.432;2023-02-21T01:33:55;100114.84;;;12.97;61.14
61136;BME280;47021;51.340;12.432;2023-02-21T01:36:27;100130.59;;;12.97;61.14
61136;BME280;47021;51.340;12.432;2023-02-21T01:39:02;100119.28;;;13.06;60.79
61136;BME280;47021;51.340;12.432;2023-02-21T01:41:27;100115.91;;;12.57;62.31
61136;BME280;47021;51.340;12.432;2023-02-21T01:46:46;100128.47;;;12.44;62.58
61136;BME280;47021;51.340;12.432;2023-02-21T01:49:13;100136.59;;;12.60;62.52
61136;BME280;47021;51.340;12.432;2023-02-21T01:51:42;100133.66;;;12.83;62.15
61136;BME280;47021;51.340;12.432;2023-02-21T01:56:52;100100.75;;;13.44;60.53
61136;BME280;47021;51.340;12.432;2023-02-21T01:59:31;100107.19;;;12.66;62.63
61136;BME280;47021;51.340;12.432;2023-02-21T02:01:58;100142.44;;;12.91;61.74
61136;BME280;47021;51.340;12.432;2023-02-21T02:04:28;100121.25;;;12.75;62.46
61136;BME280;47021;51.340;12.432;2023-02-21T02:07:01;100103.72;;;12.75;62.32
61136;BME280;47021;51.340;12.432;2023-02-21T02:09:26;100104.41;;;12.87;62.03
61136;BME280;47021;51.340;12.432;2023-02-21T02:28:15;100067.34;;;12.72;62.96
61136;BME280;47021;51.340;12.432;2023-02-21T02:38:33;100070.47;;;12.86;62.63
61136;BME280;47021;51.340;12.432;2023-02-21T02:41:38;100065.88;;;12.60;63.50
61136;BME280;47021;51.340;12.432;2023-02-21T02:46:47;100073.19;;;12.47;63.63
61136;BME280;47021;51.340;12.432;2023-02-21T02:51:42;100067.22;;;12.74;63.13
61136;BME280;47021;51.340;12.432;2023-02-21T02:54:07;100074.56;;;12.98;62.23
61136;BME280;47021;51.340;12.432;2023-02-21T02:56:39;100074.84;;;12.58;63.51
61136;BME280;47021;51.340;12.432;2023-02-21T02:59:20;100069.56;;;13.04;62.31
61136;BME280;47021;51.340;12.432;2023-02-21T03:09:43;100060.00;;;12.86;63.24
61136;BME280;47021;51.340;12.432;2023-02-21T03:12:23;100056.41;;;12.77;63.25
61136;BME280;47021;51.340;12.432;2023-02-21T03:17:29;100054.56;;;12.60;64.23
61136;BME280;47021;51.340;12.432;2023-02-21T03:19:57;100041.59;;;12.95;63.35
61136;BME280;47021;51.340;12.432;2023-02-21T03:22:24;100044.53;;;12.92;63.45
61136;BME280;47021;51.340;12.432;2023-02-21T03:24:52;100049.56;;;12.66;64.29
61136;BME280;47021;51.340;12.432;2023-02-21T03:27:18;100059.81;;;12.50;65.04
61136;BME280;47021;51.340;12.432;2023-02-21T03:29:46;100048.31;;;12.70;64.01
61136;BME280;47021;51.340;12.432;2023-02-21T03:32:14;100041.03;;;13.01;63.52
61136;BME280;47021;51.340;12.432;2023-02-21T03:34:41;100055.94;;;13.10;63.40
61136;BME280;47021;51.340;12.432;2023-02-21T03:37:17;100060.63;;;12.60;64.33
61136;BME280;47021;51.340;12.432;2023-02-21T03:39:49;100043.94;;;12.98;63.87
61136;BME280;47021;51.340;12.432;2023-02-21T03:42:22;100047.50;;;13.07;62.95
61136;BME280;47021;51.340;12.432;2023-02-21T03:47:31;100043.72;;;12.82;64.56
61136;BME280;47021;51.340;12.432;2023-02-21T03:52:29;100029.81;;;12.72;64.14
61136;BME280;47021;51.340;12.432;2023-02-21T03:54:55;100057.47;;;12.47;65.54
61136;BME280;47021;51.340;12.432;2023-02-21T03:57:27;100075.44;;;12.79;64.31
61136;BME280;47021;51.340;12.432;2023-02-21T03:59:54;100057.47;;;12.47;65.47
61136;BME280;47021;51.340;12.432;2023-02-21T04:02:19;100045.88;;;12.59;65.34
61136;BME280;47021;51.340;12.432;2023-02-21T04:04:57;100047.16;;;12.92;64.07
61136;BME280;47021;51.340;12.432;2023-02-21T04:07:22;100038.09;;;12.67;65.10
61136;BME280;47021;51.340;12.432;2023-02-21T04:09:47;100044.94;;;12.51;65.15
61136;BME280;47021;51.340;12.432;2023-02-21T04:12:13;100064.13;;;12.23;65.98
61136;BME280;47021;51.340;12.432;2023-02-21T04:14:38;100037.25;;;12.76;65.11
61136;BME280;47021;51.340;12.432;2023-02-21T04:17:05;100040.44;;;12.70;65.08
61136;BME280;47021;51.340;12.432;2023-02-21T04:19:32;100038.94;;;13.05;64.01
61136;BME280;47021;51.340;12.432;2023-02-21T04:21:59;100038.38;;;12.74;64.18
61136;BME280;47021;51.340;12.432;2023-02-21T04:24:32;100033.91;;;12.38;65.97
61136;BME280;47021;51.340;12.432;2023-02-21T04:26:58;100037.97;;;12.79;64.36
61136;BME280;47021;51.340;12.432;2023-02-21T04:29:24;100030.56;;;12.55;65.05
61136;BME280;47021;51.340;12.432;2023-02-21T04:31:50;100018.78;;;12.78;64.19
61136;BME280;47021;51.340;12.432;2023-02-21T04:34:21;100020.97;;;12.83;64.19
61136;BME280;47021;51.340;12.432;2023-02-21T04:36:47;100018.84;;;12.59;64.70
61136;BME280;47021;51.340;12.432;2023-02-21T04:39:15;100017.47;;;12.64;64.99
61136;BME280;47021;51.340;12.432;2023-02-21T04:41:40;100027.84;;;12.84;64.74
61136;BME280;47021;51.340;12.432;2023-02-21T04:44:07;100011.88;;;13.14;63.38
61136;BME280;47021;51.340;12.432;2023-02-21T04:49:09;100017.34;;;13.48;62.28
61136;BME280;47021;51.340;12.432;2023-02-21T04:51:50;100009.38;;;13.39;62.64
61136;BME280;47021;51.340;12.432;2023-02-21T04:54:15;100014.88;;;12.92;63.93
61136;BME280;47021;51.340;12.432;2023-02-21T04:56:40;100016.56;;;13.20;63.19
61136;BME280;47021;51.340;12.432;2023-02-21T04:59:13;100015.34;;;12.77;64.03
61136;BME280;47021;51.340;12.432;2023-02-21T05:01:39;100025.94;;;12.86;63.39
61136;BME280;47021;51.340;12.432;2023-02-21T05:04:04;100017.44;;;13.01;63.13
61136;BME280;47021;51.340;12.432;2023-02-21T05:06:29;100021.88;;;13.28;62.63
61136;BME280;47021;51.340;12.432;2023-02-21T05:09:04;100025.44;;;13.00;63.20
61136;BME280;47021;51.340;12.432;2023-02-21T05:11:31;100036.28;;;12.77;64.13
61136;BME280;47021;51.340;12.432;2023-02-21T05:14:12;100035.06;;;12.72;64.03
61136;BME280;47021;51.340;12.432;2023-02-21T05:16:39;100028.34;;;13.06;63.38
61136;BME280;47021;51.340;12.432;2023-02-21T05:19:04;100038.69;;;12.61;64.38
61136;BME280;47021;51.340;12.432;2023-02-21T05:21:33;100049.13;;;12.81;64.20
61136;BME280;47021;51.340;12.432;2023-02-21T05:26:48;100046.06;;;12.85;63.79
61136;BME280;47021;51.340;12.432;2023-02-21T05:29:14;100051.66;;;13.00;63.26
61136;BME280;47021;51.340;12.432;2023-02-21T05:31:41;100044.06;;;12.69;64.26
61136;BME280;47021;51.340;12.432;2023-02-21T05:34:06;100047.59;;;12.78;64.18
61136;BME280;47021;51.340;12.432;2023-02-21T05:36:31;100041.34;;;12.89;63.78
61136;BME280;47021;51.340;12.432;2023-02-21T05:38:57;100043.97;;;12.89;64.05
61136;BME280;47021;51.340;12.432;2023-02-21T05:41:23;100055.91;;;12.73;63.84
61136;BME280;47021;51.340;12.432;2023-02-21T05:43:48;100046.75;;;13.24;62.63
61136;BME280;47021;51.340;12.432;2023-02-21T05:46:18;100054.09;;;12.74;63.80
61136;BME280;47021;51.340;12.432;2023-02-21T05:48:43;100045.09;;;12.76;64.19
61136;BME280;47021;51.340;12.432;2023-02-21T05:51:09;100037.63;;;12.91;63.88
61136;BME280;47021;51.340;12.432;2023-02-21T05:53:42;100055.22;;;12.62;64.48
61136;BME280;47021;51.340;12.432;2023-02-21T05:56:07;100043.09;;;13.34;62.54
61136;BME280;47021;51.340;12.432;2023-02-21T05:58:34;100054.16;;;13.01;63.40
61136;BME280;47021;51.340;12.432;2023-02-21T06:01:06;100061.59;;;13.06;63.42
61136;BME280;47021;51.340;12.432;2023-02-21T06:03:32;100062.97;;;13.00;63.78
61136;BME280;47021;51.340;12.432;2023-02-21T06:05:58;100071.94;;;13.07;63.01
61136;BME280;47021;51.340;12.432;2023-02-21T06:08:24;100063.38;;;13.05;63.17
61136;BME280;47021;51.340;12.432;2023-02-21T06:10:50;100079.56;;;12.82;63.35
61136;BME280;47021;51.340;12.432;2023-02-21T06:16:00;100075.88;;;12.74;63.92
61136;BME280;47021;51.340;12.432;2023-02-21T06:18:27;100083.25;;;13.08;63.05
61136;BME280;47021;51.340;12.432;2023-02-21T06:20:52;100090.47;;;12.77;63.74
61136;BME280;47021;51.340;12.432;2023-02-21T06:23:19;100099.19;;;12.68;64.34
61136;BME280;47021;51.340;12.432;2023-02-21T06:28:28;100115.38;;;12.35;65.34
61136;BME280;47021;51.340;12.432;2023-02-21T06:33:38;100112.34;;;12.39;65.62
61136;BME280;47021;51.340;12.432;2023-02-21T06:36:04;100119.72;;;12.72;63.99
61136;BME280;47021;51.340;12.432;2023-02-21T06:38:37;100112.28;;;12.68;64.36
61136;BME280;47021;51.340;12.432;2023-02-21T06:41:21;100117.53;;;12.58;64.92
61136;BME280;47021;51.340;12.432;2023-02-21T06:46:37;100130.03;;;12.93;64.15
61136;BME280;47021;51.340;12.432;2023-02-21T06:49:02;100123.00;;;12.94;63.89
61136;BME280;47021;51.340;12.432;2023-02-21T06:54:28;100129.13;;;12.65;65.00
61136;BME280;47021;51.340;12.432;2023-02-21T06:59:37;100141.94;;;12.59;64.88
61136;BME280;47021;51.340;12.432;2023-02-21T07:02:02;100143.84;;;12.86;64.71
61136;BME280;47021;51.340;12.432;2023-02-21T07:04:28;100139.31;;;12.68;65.00
61136;BME280;47021;51.340;12.432;2023-02-21T07:12:31;100149.72;;;13.16;63.41
61136;BME280;47021;51.340;12.432;2023-02-21T07:15:02;100150.59;;;13.44;62.60
61136;BME280;47021;51.340;12.432;2023-02-21T07:17:31;100138.19;;;12.90;64.20
61136;BME280;47021;51.340;12.432;2023-02-21T07:20:10;100156.00;;;12.67;64.98
61136;BME280;47021;51.340;12.432;2023-02-21T07:22:36;100138.94;;;13.29;63.04
61136;BME280;47021;51.340;12.432;2023-02-21T07:25:13;100148.44;;;13.57;62.30
61136;BME280;47021;51.340;12.432;2023-02-21T07:27:40;100151.28;;;13.36;62.79
61136;BME280;47021;51.340;12.432;2023-02-21T07:30:06;100145.81;;;13.57;61.82
61136;BME280;47021;51.340;12.432;2023-02-21T07:32:33;100152.56;;;13.32;62.84
61136;BME280;47021;51.340;12.432;2023-02-21T07:35:01;100149.22;;;13.40;62.94
61136;BME280;47021;51.340;12.432;2023-02-21T07:37:40;100156.97;;;13.32;63.06
61136;BME280;47021;51.340;12.432;2023-02-21T07:40:05;100168.31;;;13.23;63.70
61136;BME280;47021;51.340;12.432;2023-02-21T07:42:31;100147.56;;;13.39;63.11
61136;BME280;47021;51.340;12.432;2023-02-21T07:44:56;100130.66;;;13.78;61.44
61136;BME280;47021;51.340;12.432;2023-02-21T07:47:22;100139.88;;;13.82;61.52
61136;BME280;47021;51.340;12.432;2023-02-21T07:49:49;100165.34;;;12.99;63.71
61136;BME280;47021;51.340;12.432;2023-02-21T07:52:14;100156.78;;;13.43;62.82
61136;BME280;47021;51.340;12.432;2023-02-21T07:54:40;100142.81;;;13.79;61.78
61136;BME280;47021;51.340;12.432;2023-02-21T07:57:17;100167.56;;;13.94;61.14
61136;BME280;47021;51.340;12.432;2023-02-21T07:59:47;100163.41;;;13.74;61.98
61136;BME280;47021;51.340;12.432;2023-02-21T08:02:12;100165.78;;;13.40;63.02
61136;BME280;47021;51.340;12.432;2023-02-21T08:04:40;100164.53;;;13.72;62.12
61136;BME280;47021;51.340;12.432;2023-02-21T08:07:11;100181.53;;;13.40;62.75
61136;BME280;47021;51.340;12.432;2023-02-21T08:09:37;100173.22;;;13.08;64.46
61136;BME280;47021;51.340;12.432;2023-02-21T08:12:02;100177.84;;;13.61;62.40
61136;BME280;47021;51.340;12.432;2023-02-21T08:14:34;100175.75;;;13.91;61.53
61136;BME280;47021;51.340;12.432;2023-02-21T08:17:01;100182.88;;;13.81;61.97
61136;BME280;47021;51.340;12.432;2023-02-21T08:19:26;100183.50;;;13.66;62.34
61136;BME280;47021;51.340;12.432;2023-02-21T08:21:57;100199.97;;;13.58;62.42
61136;BME280;47021;51.340;12.432;2023-02-21T08:24:22;100178.69;;;13.88;61.83
61136;BME280;47021;51.340;12.432;2023-02-21T08:26:56;100187.38;;;13.62;61.87
61136;BME280;47021;51.340;12.432;2023-02-21T08:29:21;100183.94;;;13.88;61.63
61136;BME280;47021;51.340;12.432;2023-02-21T08:31:46;100182.88;;;13.81;61.73
61136;BME280;47021;51.340;12.432;2023-02-21T08:34:14;100182.56;;;14.29;60.85
61136;BME280;47021;51.340;12.432;2023-02-21T08:36:40;100185.28;;;14.72;59.67
61136;BME280;47021;51.340;12.432;2023-02-21T08:39:21;100180.78;;;14.30;60.27
61136;BME280;47021;51.340;12.432;2023-02-21T08:44:31;100182.13;;;14.34;60.38
61136;BME280;47021;51.340;12.432;2023-02-21T08:46:59;100201.63;;;13.86;62.18
61136;BME280;47021;51.340;12.432;2023-02-21T08:52:22;100183.16;;;13.96;61.47
61136;BME280;47021;51.340;12.432;2023-02-21T08:54:48;100176.13;;;13.96;61.51
61136;BME280;47021;51.340;12.432;2023-02-21T08:57:14;100167.59;;;14.39;60.70
61136;BME280;47021;51.340;12.432;2023-02-21T09:02:24;100184.31;;;13.93;61.36
61136;BME280;47021;51.340;12.432;2023-02-21T09:04:50;100180.66;;;14.22;60.93
61136;BME280;47021;51.340;12.432;2023-02-21T09:07:19;100196.94;;;13.53;62.26
61136;BME280;47021;51.340;12.432;2023-02-21T09:09:44;100191.75;;;13.98;61.61
61136;BME280;47021;51.340;12.432;2023-02-21T09:12:18;100218.63;;;13.82;62.11
61136;BME280;47021;51.340;12.432;2023-02-21T09:14:43;100194.28;;;14.35;60.38
61136;BME280;47021;51.340;12.432;2023-02-21T09:22:52;100160.41;;;14.14;61.05
61136;BME280;47021;51.340;12.432;2023-02-21T09:25:21;100177.47;;;14.28;60.49
61136;BME280;47021;51.340;12.432;2023-02-21T09:27:49;100174.09;;;14.53;60.07
61136;BME280;47021;51.340;12.432;2023-02-21T09:30:20;100161.25;;;14.50;59.60
61136;BME280;47021;51.340;12.432;2023-02-21T09:32:54;100174.63;;;14.39;60.04
61136;BME280;47021;51.340;12.432;2023-02-21T09:35:20;100177.53;;;14.71;59.44
61136;BME280;47021;51.340;12.432;2023-02-21T09:37:47;100190.47;;;14.47;59.88
61136;BME280;47021;51.340;12.432;2023-02-21T09:42:57;100192.16;;;14.91;58.60
61136;BME280;47021;51.340;12.432;2023-02-21T09:48:17;100189.72;;;14.37;60.20
61136;BME280;47021;51.340;12.432;2023-02-21T09:53:28;100193.41;;;15.05;58.01
61136;BME280;47021;51.340;12.432;2023-02-21T09:56:06;100201.91;;;14.99;58.45
61136;BME280;47021;51.340;12.432;2023-02-21T09:58:38;100202.56;;;14.57;59.70
61136;BME280;47021;51.340;12.432;2023-02-21T10:02:12;100185.06;;;14.66;59.66
61136;BME280;47021;51.340;12.432;2023-02-21T10:17:42;100222.91;;;14.28;60.33
61136;BME280;47021;51.340;12.432;2023-02-21T10:20:24;100214.31;;;14.53;60.31
61136;BME280;47021;51.340;12.432;2023-02-21T10:22:51;100221.94;;;14.39;60.28
61136;BME280;47021;51.340;12.432;2023-02-21T10:31:02;100219.66;;;14.79;59.59
61136;BME280;47021;51.340;12.432;2023-02-21T10:33:30;100217.41;;;14.49;60.55
61136;BME280;47021;51.340;12.432;2023-02-21T10:35:59;100222.22;;;14.71;59.48
61136;BME280;47021;51.340;12.432;2023-02-21T10:41:39;100224.81;;;15.32;58.26
61136;BME280;47021;51.340;12.432;2023-02-21T10:44:09;100229.53;;;15.46;57.51
61136;BME280;47021;51.340;12.432;2023-02-21T10:46:39;100231.97;;;14.96;59.34
61136;BME280;47021;51.340;12.432;2023-02-21T10:49:24;100224.97;;;15.05;58.83
61136;BME280;47021;51.340;12.432;2023-02-21T10:52:02;100229.56;;;15.54;57.76
61136;BME280;47021;51.340;12.432;2023-02-21T10:54:29;100225.47;;;15.51;57.82
61136;BME280;47021;51.340;12.432;2023-02-21T10:56:54;100213.81;;;15.36;57.91
61136;BME280;47021;51.340;12.432;2023-02-21T10:59:34;100219.38;;;15.51;57.77
61136;BME280;47021;51.340;12.432;2023-02-21T11:07:28;100225.88;;;15.73;57.24
61136;BME280;47021;51.340;12.432;2023-02-21T11:09:53;100228.78;;;15.53;57.65
61136;BME280;47021;51.340;12.432;2023-02-21T11:20:19;100222.88;;;15.68;57.30
61136;BME280;47021;51.340;12.432;2023-02-21T11:22:50;100227.31;;;15.93;56.13
61136;BME280;47021;51.340;12.432;2023-02-21T11:28:10;100219.50;;;15.24;57.64
61136;BME280;47021;51.340;12.432;2023-02-21T11:30:49;100212.38;;;15.16;57.92
61136;BME280;47021;51.340;12.432;2023-02-21T11:33:29;100208.19;;;15.49;56.54
61136;BME280;47021;51.340;12.432;2023-02-21T11:44:28;100216.81;;;15.16;57.98
61136;BME280;47021;51.340;12.432;2023-02-21T11:49:35;100198.28;;;15.00;58.49
61136;BME280;47021;51.340;12.432;2023-02-21T11:52:11;100197.75;;;14.70;59.48
61136;BME280;47021;51.340;12.432;2023-02-21T11:54:39;100185.97;;;15.26;57.40
61136;BME280;47021;51.340;12.432;2023-02-21T11:57:20;100200.03;;;14.91;58.54
61136;BME280;47021;51.340;12.432;2023-02-21T12:40:28;100146.34;;;16.03;55.42
61136;BME280;47021;51.340;12.432;2023-02-21T12:48:31;100143.31;;;15.82;56.38
61136;BME280;47021;51.340;12.432;2023-02-21T12:51:06;100140.34;;;15.77;56.00
61136;BME280;47021;51.340;12.432;2023-02-21T12:53:51;100129.13;;;15.67;56.87
61136;BME280;47021;51.340;12.432;2023-02-21T12:56:30;100133.47;;;15.92;56.48
61136;BME280;47021;51.340;12.432;2023-02-21T13:01:48;100148.75;;;15.80;57.13
61136;BME280;47021;51.340;12.432;2023-02-21T13:07:00;100137.94;;;15.99;56.50
61136;BME280;47021;51.340;12.432;2023-02-21T13:15:09;100147.00;;;15.21;58.85
61136;BME280;47021;51.340;12.432;2023-02-21T13:17:48;100130.06;;;15.24;58.81
61136;BME280;47021;51.340;12.432;2023-02-21T13:20:17;100128.72;;;15.20;58.87
61136;BME280;47021;51.340;12.432;2023-02-21T13:28:16;100130.25;;;15.56;57.68
61136;BME280;47021;51.340;12.432;2023-02-21T13:30:47;100124.22;;;15.72;57.75
61136;BME280;47021;51.340;12.432;2023-02-21T13:35:56;100115.75;;;16.26;56.16
61136;BME280;47021;51.340;12.432;2023-02-21T13:38:23;100114.56;;;15.96;56.77
61136;BME280;47021;51.340;12.432;2023-02-21T13:43:32;100117.84;;;15.90;57.27
61136;BME280;47021;51.340;12.432;2023-02-21T13:48:42;100109.09;;;15.98;56.79
61136;BME280;47021;51.340;12.432;2023-02-21T13:54:08;100116.00;;;15.91;57.32
61136;BME280;47021;51.340;12.432;2023-02-21T14:10:01;100116.84;;;15.91;57.00
61136;BME280;47021;51.340;12.432;2023-02-21T14:12:28;100114.56;;;15.96;56.83
61136;BME280;47021;51.340;12.432;2023-02-21T14:15:03;100112.75;;;15.97;56.62
61136;BME280;47021;51.340;12.432;2023-02-21T14:17:31;100109.88;;;15.66;58.00
61136;BME280;47021;51.340;12.432;2023-02-21T14:19:56;100099.75;;;16.03;56.90
61136;BME280;47021;51.340;12.432;2023-02-21T14:22:26;100103.38;;;16.18;56.09
61136;BME280;47021;51.340;12.432;2023-02-21T14:27:49;100120.66;;;16.05;56.34
61136;BME280;47021;51.340;12.432;2023-02-21T14:30:24;100110.59;;;15.92;56.78
61136;BME280;47021;51.340;12.432;2023-02-21T14:37:58;100123.81;;;15.59;57.30
61136;BME280;47021;51.340;12.432;2023-02-21T14:40:57;100116.66;;;15.77;57.39
61136;BME280;47021;51.340;12.432;2023-02-21T14:43:40;100110.47;;;16.18;56.01
61136;BME280;47021;51.340;12.432;2023-02-21T14:54:12;100113.56;;;16.13;55.54
61136;BME280;47021;51.340;12.432;2023-02-21T15:02:24;100117.06;;;16.30;54.99
61136;BME280;47021;51.340;12.432;2023-02-21T15:10:23;100122.72;;;15.69;55.27
61136;BME280;47021;51.340;12.432;2023-02-21T15:15:26;100119.03;;;16.20;53.52
61136;BME280;47021;51.340;12.432;2023-02-21T15:17:55;100122.28;;;15.98;54.38
61136;BME280;47021;51.340;12.432;2023-02-21T15:20:21;100131.41;;;15.62;55.18
61136;BME280;47021;51.340;12.432;2023-02-21T15:23:11;100128.16;;;15.08;56.60
61136;BME280;47021;51.340;12.432;2023-02-21T15:25:39;100124.34;;;15.70;55.33
61136;BME280;47021;51.340;12.432;2023-02-21T15:28:37;100124.00;;;15.31;56.06
61136;BME280;47021;51.340;12.432;2023-02-21T15:33:46;100130.88;;;15.24;55.71
61136;BME280;47021;51.340;12.432;2023-02-21T15:36:17;100140.38;;;15.17;55.02
61136;BME280;47021;51.340;12.432;2023-02-21T15:41:47;100136.16;;;15.58;53.70
61136;BME280;47021;51.340;12.432;2023-02-21T15:47:01;100144.03;;;15.24;54.63
61136;BME280;47021;51.340;12.432;2023-02-21T15:55:20;100143.47;;;15.72;53.89
61136;BME280;47021;51.340;12.432;2023-02-21T15:58:00;100139.94;;;15.30;54.79
61136;BME280;47021;51.340;12.432;2023-02-21T16:05:40;100135.72;;;15.71;52.78
61136;BME280;47021;51.340;12.432;2023-02-21T16:08:05;100149.09;;;15.85;52.35
61136;BME280;47021;51.340;12.432;2023-02-21T16:10:31;100145.03;;;15.57;52.84
61136;BME280;47021;51.340;12.432;2023-02-21T16:13:07;100153.31;;;15.36;53.14
61136;BME280;47021;51.340;12.432;2023-02-21T16:15:33;100144.81;;;15.17;53.75
61136;BME280;47021;51.340;12.432;2023-02-21T16:20:38;100144.53;;;15.53;52.82
61136;BME280;47021;51.340;12.432;2023-02-21T16:23:13;100137.72;;;15.43;53.28
61136;BME280;47021;51.340;12.432;2023-02-21T16:28:28;100151.59;;;15.19;53.73
61136;BME280;47021;51.340;12.432;2023-02-21T16:33:44;100154.31;;;15.69;52.53
61136;BME280;47021;51.340;12.432;2023-02-21T16:36:25;100151.50;;;15.63;52.62
61136;BME280;47021;51.340;12.432;2023-02-21T16:39:01;100156.41;;;15.06;54.03
61136;BME280;47021;51.340;12.432;2023-02-21T16:41:26;100168.22;;;15.28;53.31
61136;BME280;47021;51.340;12.432;2023-02-21T16:43:54;100161.69;;;15.06;53.79
61136;BME280;47021;51.340;12.432;2023-02-21T16:46:23;100164.91;;;14.74;55.20
61136;BME280;47021;51.340;12.432;2023-02-21T16:48:56;100165.88;;;14.91;54.61
61136;BME280;47021;51.340;12.432;2023-02-21T16:54:06;100163.84;;;15.11;54.00
61136;BME280;47021;51.340;12.432;2023-02-21T16:56:31;100165.44;;;14.60;55.17
61136;BME280;47021;51.340;12.432;2023-02-21T17:01:40;100168.84;;;14.96;54.43
61136;BME280;47021;51.340;12.432;2023-02-21T17:04:13;100165.44;;;14.78;55.16
61136;BME280;47021;51.340;12.432;2023-02-21T17:06:40;100174.31;;;15.28;54.09
61136;BME280;47021;51.340;12.432;2023-02-21T17:09:05;100177.06;;;15.19;54.03
61136;BME280;47021;51.340;12.432;2023-02-21T17:11:33;100177.81;;;15.11;54.23
61136;BME280;47021;51.340;12.432;2023-02-21T17:14:22;100184.88;;;15.36;53.48
61136;BME280;47021;51.340;12.432;2023-02-21T17:17:06;100190.78;;;15.30;53.25
61136;BME280;47021;51.340;12.432;2023-02-21T17:19:33;100188.81;;;15.32;53.60
61136;BME280;47021;51.340;12.432;2023-02-21T17:22:00;100197.66;;;14.80;55.05
61136;BME280;47021;51.340;12.432;2023-02-21T17:30:00;100197.53;;;15.07;54.50
61136;BME280;47021;51.340;12.432;2023-02-21T17:32:34;100192.97;;;15.17;54.49
61136;BME280;47021;51.340;12.432;2023-02-21T17:40:41;100197.78;;;14.96;54.79
61136;BME280;47021;51.340;12.432;2023-02-21T17:43:14;100196.34;;;15.27;53.45
61136;BME280;47021;51.340;12.432;2023-02-21T17:45:48;100208.56;;;14.85;55.44
61136;BME280;47021;51.340;12.432;2023-02-21T17:48:27;100200.75;;;15.01;54.37
61136;BME280;47021;51.340;12.432;2023-02-21T17:50:55;100204.63;;;14.71;54.84
61136;BME280;47021;51.340;12.432;2023-02-21T17:56:19;100207.72;;;14.67;54.72
61136;BME280;47021;51.340;12.432;2023-02-21T18:01:36;100207.59;;;14.68;54.58
61136;BME280;47021;51.340;12.432;2023-02-21T18:04:03;100214.88;;;14.57;54.44
61136;BME280;47021;51.340;12.432;2023-02-21T18:06:28;100214.53;;;14.25;55.33
61136;BME280;47021;51.340;12.432;2023-02-21T18:09:15;100220.19;;;14.30;55.32
61136;BME280;47021;51.340;12.432;2023-02-21T18:11:50;100219.44;;;14.72;54.23
61136;BME280;47021;51.340;12.432;2023-02-21T18:14:18;100222.50;;;14.85;53.95
61136;BME280;47021;51.340;12.432;2023-02-21T18:16:58;100210.78;;;14.98;54.04